createdAt,value
2019-05-16T00:02:08.284Z,19.66
2019-05-16T00:04:43.283Z,19.76
2019-05-16T00:07:19.201Z,19.87
2019-05-16T00:09:54.316Z,19.94
2019-05-16T00:12:29.190Z,19.93
2019-05-16T00:15:03.026Z,19.99
2019-05-16T00:17:38.548Z,20.05
2019-05-16T00:20:13.364Z,20.16
2019-05-16T00:22:48.471Z,20.17
2019-05-16T00:25:22.057Z,20.19
2019-05-16T00:27:58.420Z,20.24
2019-05-16T00:30:31.160Z,20.29
2019-05-16T00:33:04.971Z,20.39
2019-05-16T00:35:39.023Z,20.50
2019-05-16T00:38:12.735Z,20.51
2019-05-16T00:40:48.603Z,20.43
2019-05-16T00:43:21.333Z,20.50
2019-05-16T00:45:55.612Z,20.60
2019-05-16T00:48:29.424Z,20.72
2019-05-16T00:51:04.853Z,20.67
2019-05-16T00:53:40.468Z,20.78
2019-05-16T00:56:14.674Z,20.80
2019-05-16T00:58:49.998Z,20.72
2019-05-16T01:01:25.405Z,20.84
2019-05-16T01:03:59.238Z,21.06
2019-05-16T01:06:33.303Z,21.10
2019-05-16T01:09:09.721Z,21.16
2019-05-16T01:11:45.272Z,21.21
2019-05-16T01:14:20.586Z,21.34
2019-05-16T01:16:57.996Z,21.46
2019-05-16T01:19:31.459Z,21.40
2019-05-16T01:22:08.352Z,21.45
2019-05-16T01:24:42.365Z,21.60
2019-05-16T01:27:18.364Z,21.60
2019-05-16T01:29:53.646Z,21.60
2019-05-16T01:32:32.220Z,21.71
2019-05-16T01:35:04.479Z,21.84
2019-05-16T01:37:39.844Z,21.80
2019-05-16T01:40:13.862Z,21.69
2019-05-16T01:42:49.860Z,21.85
2019-05-16T01:45:27.674Z,21.91
2019-05-16T01:48:02.271Z,22.01
2019-05-16T01:50:47.987Z,21.98
2019-05-16T01:53:23.192Z,22.07
2019-05-16T01:55:58.011Z,22.05
2019-05-16T01:58:34.012Z,22.21
2019-05-16T02:01:13.180Z,22.20
2019-05-16T02:03:44.411Z,22.24
2019-05-16T02:06:18.719Z,22.23
2019-05-16T02:08:54.311Z,22.30
2019-05-16T02:11:29.627Z,22.31
2019-05-16T02:14:05.027Z,22.42
2019-05-16T02:16:40.210Z,22.53
2019-05-16T02:19:14.511Z,22.56
2019-05-16T02:21:53.604Z,22.74
2019-05-16T02:24:31.630Z,22.93
2019-05-16T02:27:09.567Z,23.04
2019-05-16T02:29:44.455Z,22.93
2019-05-16T02:32:22.231Z,22.91
2019-05-16T02:35:01.160Z,22.99
2019-05-16T02:37:35.390Z,23.09
2019-05-16T02:40:12.136Z,23.15
2019-05-16T02:42:51.241Z,23.09
2019-05-16T02:45:32.514Z,22.86
2019-05-16T02:48:05.879Z,22.94
2019-05-16T02:50:41.881Z,23.03
2019-05-16T02:53:17.122Z,23.06
2019-05-16T02:55:53.669Z,23.22
2019-05-16T02:58:30.733Z,23.27
2019-05-16T03:01:06.479Z,23.50
2019-05-16T03:04:03.238Z,23.57
2019-05-16T03:06:40.849Z,23.56
2019-05-16T03:09:15.375Z,23.69
2019-05-16T03:11:52.253Z,23.59
2019-05-16T03:14:26.403Z,23.62
2019-05-16T03:17:03.141Z,23.82
2019-05-16T03:19:41.737Z,23.92
2019-05-16T03:22:21.566Z,24.05
2019-05-16T03:24:52.874Z,24.06
2019-05-16T03:27:30.358Z,24.07
2019-05-16T03:30:03.246Z,24.00
2019-05-16T03:32:43.975Z,23.95
2019-05-16T03:35:16.432Z,24.24
2019-05-16T03:38:12.177Z,24.50
2019-05-16T03:40:51.013Z,24.40
2019-05-16T03:43:23.575Z,24.46
2019-05-16T03:45:57.438Z,24.60
2019-05-16T03:48:32.851Z,24.65
2019-05-16T03:51:07.148Z,24.65
2019-05-16T03:53:41.193Z,24.76
2019-05-16T03:56:15.083Z,24.76
2019-05-16T03:58:51.025Z,25.06
2019-05-16T04:01:26.645Z,25.14
2019-05-16T04:04:01.649Z,25.28
2019-05-16T04:06:35.141Z,25.15
2019-05-16T04:09:12.413Z,25.19
2019-05-16T04:11:46.512Z,25.38
2019-05-16T04:14:21.476Z,25.41
2019-05-16T04:16:55.006Z,25.43
2019-05-16T04:19:32.154Z,25.62
2019-05-16T04:22:10.447Z,25.88
2019-05-16T04:24:46.245Z,25.95
2019-05-16T04:27:21.666Z,26.19
2019-05-16T04:29:56.302Z,26.32
2019-05-16T04:32:31.500Z,26.37
2019-05-16T04:35:06.508Z,26.39
2019-05-16T04:37:42.447Z,26.37
2019-05-16T04:40:21.645Z,26.36
2019-05-16T04:42:54.908Z,26.48
2019-05-16T04:45:31.726Z,26.56
2019-05-16T04:48:04.074Z,26.86
2019-05-16T04:50:41.790Z,26.76
2019-05-16T04:53:14.813Z,26.91
2019-05-16T04:55:51.676Z,26.91
2019-05-16T04:58:24.094Z,26.66
2019-05-16T05:01:01.542Z,26.60
2019-05-16T05:03:35.683Z,26.20
2019-05-16T05:06:11.360Z,26.25
2019-05-16T05:08:54.478Z,26.73
2019-05-16T05:11:21.726Z,26.73
2019-05-16T05:13:57.425Z,26.90
2019-05-16T05:16:32.391Z,27.13
2019-05-16T05:19:07.615Z,27.01
2019-05-16T05:21:41.490Z,26.85
2019-05-16T05:24:15.339Z,26.59
2019-05-16T05:26:50.658Z,26.72
2019-05-16T05:29:24.482Z,26.38
2019-05-16T05:32:03.539Z,26.86
2019-05-16T05:34:33.012Z,27.05
2019-05-16T05:37:12.260Z,26.96
2019-05-16T05:39:45.023Z,26.51
2019-05-16T05:42:20.121Z,26.90
2019-05-16T05:44:56.083Z,26.87
2019-05-16T05:47:30.828Z,27.10
2019-05-16T05:50:07.642Z,27.09
2019-05-16T05:52:45.755Z,27.03
2019-05-16T05:55:20.004Z,26.83
2019-05-16T05:57:56.016Z,26.70
2019-05-16T06:00:32.642Z,27.09
2019-05-16T06:03:06.103Z,27.03
2019-05-16T06:05:41.294Z,27.06
2019-05-16T06:08:16.647Z,27.05
2019-05-16T06:10:50.761Z,27.28
2019-05-16T06:13:24.386Z,26.86
2019-05-16T06:16:00.173Z,26.69
2019-05-16T06:18:35.490Z,27.12
2019-05-16T06:21:11.226Z,27.41
2019-05-16T06:23:45.296Z,27.34
2019-05-16T06:26:20.632Z,27.13
2019-05-16T06:28:57.108Z,26.70
2019-05-16T06:31:31.305Z,26.86
2019-05-16T06:34:07.962Z,27.04
2019-05-16T06:36:41.562Z,27.21
2019-05-16T06:39:15.382Z,26.74
2019-05-16T06:41:50.956Z,26.90
2019-05-16T06:44:26.188Z,27.03
2019-05-16T06:47:15.933Z,27.12
2019-05-16T06:49:36.403Z,26.88
2019-05-16T06:52:10.464Z,26.54
2019-05-16T06:54:45.942Z,26.84
2019-05-16T06:57:20.605Z,26.99
2019-05-16T06:59:54.500Z,26.91
2019-05-16T07:02:33.645Z,27.00
2019-05-16T07:05:03.100Z,26.99
2019-05-16T07:07:36.694Z,26.98
2019-05-16T07:10:12.156Z,27.07
2019-05-16T07:12:46.032Z,26.98
2019-05-16T07:15:21.992Z,27.06
2019-05-16T07:17:59.444Z,27.02
2019-05-16T07:20:32.552Z,27.10
2019-05-16T07:23:06.543Z,27.18
2019-05-16T07:25:41.984Z,27.26
2019-05-16T07:28:17.328Z,26.99
2019-05-16T07:30:52.448Z,26.67
2019-05-16T07:33:27.655Z,27.00
2019-05-16T07:36:01.486Z,27.02
2019-05-16T07:38:35.263Z,27.24
2019-05-16T07:41:13.737Z,27.24
2019-05-16T07:43:45.350Z,26.92
2019-05-16T07:46:20.594Z,26.88
2019-05-16T07:48:54.468Z,27.11
2019-05-16T07:51:30.820Z,27.02
2019-05-16T07:54:02.975Z,26.69
2019-05-16T07:56:40.467Z,26.87
2019-05-16T07:59:13.292Z,26.90
2019-05-16T08:01:46.884Z,26.92
2019-05-16T08:04:20.513Z,26.97
2019-05-16T08:06:55.389Z,26.78
2019-05-16T08:09:30.613Z,26.91
2019-05-16T08:12:26.482Z,26.68
2019-05-16T08:15:00.719Z,26.35
2019-05-16T08:17:34.187Z,26.15
2019-05-16T08:20:11.021Z,25.97
2019-05-16T08:22:46.114Z,25.91
2019-05-16T08:25:21.342Z,26.06
2019-05-16T08:27:56.386Z,26.34
2019-05-16T08:30:31.918Z,26.35
2019-05-16T08:33:06.248Z,26.36
2019-05-16T08:35:45.716Z,26.31
2019-05-16T08:38:21.433Z,26.29
2019-05-16T08:41:07.990Z,26.22
2019-05-16T08:43:31.540Z,26.08
2019-05-16T08:46:12.253Z,25.90
2019-05-16T08:48:53.325Z,26.00
2019-05-16T08:51:23.788Z,25.87
2019-05-16T08:54:01.245Z,25.84
2019-05-16T08:56:32.785Z,25.71
2019-05-16T08:59:13.244Z,25.54
2019-05-16T09:01:52.103Z,25.60
2019-05-16T09:04:24.460Z,25.47
2019-05-16T09:06:56.504Z,25.73
2019-05-16T09:09:44.208Z,25.58
2019-05-16T09:12:17.264Z,25.49
2019-05-16T09:14:52.299Z,25.56
2019-05-16T09:17:27.840Z,25.45
2019-05-16T09:20:01.595Z,25.44
2019-05-16T09:22:37.744Z,25.49
2019-05-16T09:25:11.964Z,25.42
2019-05-16T09:27:47.283Z,25.28
2019-05-16T09:30:21.839Z,25.22
2019-05-16T09:32:58.615Z,25.05
2019-05-16T09:35:36.975Z,24.94
2019-05-16T09:38:10.701Z,24.81
2019-05-16T09:40:47.793Z,24.86
2019-05-16T09:43:22.186Z,24.82
2019-05-16T09:46:03.490Z,24.90
2019-05-16T09:48:34.126Z,24.86
2019-05-16T09:51:09.536Z,24.78
2019-05-16T09:53:42.838Z,24.69
2019-05-16T09:56:36.998Z,24.54
2019-05-16T09:59:12.399Z,24.43
2019-05-16T10:01:47.916Z,24.40
2019-05-16T10:04:22.307Z,24.25
2019-05-16T10:06:57.304Z,24.17
2019-05-16T10:09:41.976Z,24.14
2019-05-16T10:12:14.995Z,24.20
2019-05-16T10:14:42.844Z,24.11
2019-05-16T10:17:18.695Z,24.11
2019-05-16T10:19:52.257Z,24.04
2019-05-16T10:22:27.267Z,23.85
2019-05-16T10:25:01.276Z,23.85
2019-05-16T10:27:36.774Z,23.86
2019-05-16T10:30:12.521Z,23.81
2019-05-16T10:32:48.350Z,23.79
2019-05-16T10:35:29.361Z,23.79
2019-05-16T10:37:59.449Z,23.74
2019-05-16T10:40:36.898Z,23.68
2019-05-16T10:43:11.699Z,23.53
2019-05-16T10:45:46.389Z,23.53
2019-05-16T10:48:29.587Z,23.56
2019-05-16T10:51:28.904Z,23.56
2019-05-16T10:54:13.021Z,23.41
2019-05-16T10:56:40.517Z,23.54
2019-05-16T10:59:53.320Z,23.42
2019-05-16T11:01:49.779Z,23.33
2019-05-16T11:04:42.241Z,23.43
2019-05-16T11:07:05.766Z,23.33
2019-05-16T11:09:58.356Z,23.30
2019-05-16T11:12:44.677Z,23.17
2019-05-16T11:14:58.883Z,23.21
2019-05-16T11:17:33.983Z,23.00
2019-05-16T11:20:11.004Z,23.09
2019-05-16T11:22:47.688Z,22.96
2019-05-16T11:25:28.791Z,22.93
2019-05-16T11:28:00.586Z,22.98
2019-05-16T11:30:37.304Z,22.90
2019-05-16T11:33:10.270Z,22.88
2019-05-16T11:35:47.605Z,22.81
2019-05-16T11:38:21.237Z,22.83
2019-05-16T11:40:56.867Z,22.73
2019-05-16T11:43:30.819Z,22.77
2019-05-16T11:46:24.012Z,22.67
2019-05-16T11:48:59.324Z,22.66
2019-05-16T11:51:34.558Z,22.58
2019-05-16T11:54:08.140Z,22.52
2019-05-16T11:56:41.812Z,22.52
2019-05-16T11:59:17.122Z,22.41
2019-05-16T12:01:50.823Z,22.26
2019-05-16T12:04:24.488Z,22.13
2019-05-16T12:07:00.671Z,22.01
2019-05-16T12:09:43.499Z,22.11
2019-05-16T12:12:11.318Z,22.03
2019-05-16T12:14:49.258Z,21.94
2019-05-16T12:17:24.477Z,21.97
2019-05-16T12:19:59.695Z,21.91
2019-05-16T12:22:33.640Z,21.79
2019-05-16T12:25:08.413Z,21.76
2019-05-16T12:27:42.677Z,21.66
2019-05-16T12:30:17.681Z,21.52
2019-05-16T12:32:51.561Z,21.61
2019-05-16T12:35:27.524Z,21.57
2019-05-16T12:38:00.312Z,21.57
2019-05-16T12:40:34.312Z,21.58
2019-05-16T12:43:08.316Z,21.58
2019-05-16T12:45:42.373Z,21.63
2019-05-16T12:48:20.314Z,21.56
2019-05-16T12:50:52.019Z,21.56
2019-05-16T12:53:31.664Z,21.52
2019-05-16T12:56:02.564Z,21.47
2019-05-16T12:58:42.037Z,21.52
2019-05-16T13:01:16.328Z,21.47
2019-05-16T13:03:48.343Z,21.46
2019-05-16T13:06:22.009Z,21.54
2019-05-16T13:08:57.351Z,21.37
2019-05-16T13:11:31.002Z,21.27
2019-05-16T13:14:11.081Z,21.25
2019-05-16T13:16:42.142Z,21.24
2019-05-16T13:19:18.130Z,21.09
2019-05-16T13:21:53.488Z,21.14
2019-05-16T13:24:27.940Z,21.18
2019-05-16T13:27:03.813Z,21.10
2019-05-16T13:29:37.722Z,21.03
2019-05-16T13:32:11.707Z,21.07
2019-05-16T13:34:45.357Z,21.11
2019-05-16T13:37:20.758Z,21.03
2019-05-16T13:39:56.806Z,20.97
2019-05-16T13:42:30.553Z,20.97
2019-05-16T13:45:06.784Z,20.98
2019-05-16T13:47:40.330Z,20.82
2019-05-16T13:50:16.839Z,20.86
2019-05-16T13:52:50.712Z,20.79
2019-05-16T13:55:27.086Z,20.78
2019-05-16T13:58:04.625Z,20.84
2019-05-16T14:00:39.012Z,20.76
2019-05-16T14:03:17.718Z,20.79
2019-05-16T14:05:49.481Z,20.87
2019-05-16T14:08:26.733Z,20.78
2019-05-16T14:11:01.428Z,20.76
2019-05-16T14:13:34.304Z,20.78
2019-05-16T14:16:10.670Z,20.78
2019-05-16T14:18:46.870Z,20.73
2019-05-16T14:21:20.904Z,20.70
2019-05-16T14:24:00.461Z,20.72
2019-05-16T14:26:37.016Z,20.70
2019-05-16T14:29:12.778Z,20.67
2019-05-16T14:31:48.587Z,20.56
2019-05-16T14:34:22.451Z,20.64
2019-05-16T14:36:57.872Z,20.58
2019-05-16T14:39:30.965Z,20.59
2019-05-16T14:42:06.691Z,20.58
2019-05-16T14:44:59.848Z,20.66
2019-05-16T14:47:17.737Z,20.58
2019-05-16T14:49:51.485Z,20.58
2019-05-16T14:52:27.166Z,20.55
2019-05-16T14:55:02.436Z,20.47
2019-05-16T14:57:36.884Z,20.59
2019-05-16T15:00:13.596Z,20.53
2019-05-16T15:02:48.100Z,20.40
2019-05-16T15:05:23.637Z,20.51
2019-05-16T15:07:58.770Z,20.48
2019-05-16T15:10:34.072Z,20.46
2019-05-16T15:13:08.143Z,20.46
2019-05-16T15:15:42.979Z,20.46
2019-05-16T15:18:17.786Z,20.46
2019-05-16T15:20:53.430Z,20.35
2019-05-16T15:23:28.805Z,20.32
2019-05-16T15:26:09.055Z,20.33
2019-05-16T15:28:41.058Z,20.39
2019-05-16T15:31:16.703Z,20.31
2019-05-16T15:33:52.123Z,20.30
2019-05-16T15:36:27.583Z,20.36
2019-05-16T15:39:01.892Z,20.34
2019-05-16T15:41:36.669Z,20.31
2019-05-16T15:44:12.157Z,20.23
2019-05-16T15:46:47.868Z,20.23
2019-05-16T15:49:23.590Z,20.23
2019-05-16T15:51:57.519Z,20.26
2019-05-16T15:54:32.960Z,20.29
2019-05-16T15:57:06.924Z,20.32
2019-05-16T15:59:40.606Z,20.23
2019-05-16T16:02:14.249Z,20.31
2019-05-16T16:04:51.432Z,20.28
2019-05-16T16:07:27.002Z,20.30
2019-05-16T16:10:01.763Z,20.37
2019-05-16T16:12:37.618Z,20.49
2019-05-16T16:15:13.247Z,20.52
2019-05-16T16:17:47.316Z,20.46
2019-05-16T16:20:22.526Z,20.57
2019-05-16T16:22:57.278Z,20.55
2019-05-16T16:25:32.606Z,20.57
2019-05-16T16:28:27.818Z,20.58
2019-05-16T16:31:03.029Z,20.57
2019-05-16T16:33:38.156Z,20.55
2019-05-16T16:36:12.943Z,20.59
2019-05-16T16:38:48.507Z,20.59
2019-05-16T16:41:23.583Z,20.63
2019-05-16T16:43:58.836Z,20.62
2019-05-16T16:46:34.206Z,20.61
2019-05-16T16:49:10.037Z,20.57
2019-05-16T16:51:47.775Z,20.61
2019-05-16T16:54:21.980Z,20.59
2019-05-16T16:56:55.756Z,20.58
2019-05-16T16:59:29.443Z,20.52
2019-05-16T17:02:04.872Z,20.52
2019-05-16T17:04:39.156Z,20.48
2019-05-16T17:07:12.971Z,20.50
2019-05-16T17:09:47.966Z,20.48
2019-05-16T17:12:22.294Z,20.47
2019-05-16T17:14:57.330Z,20.46
2019-05-16T17:17:31.131Z,20.46
2019-05-16T17:20:07.597Z,20.46
2019-05-16T17:22:43.455Z,20.47
2019-05-16T17:25:18.910Z,20.46
2019-05-16T17:27:54.201Z,20.37
2019-05-16T17:30:29.627Z,20.42
2019-05-16T17:33:04.596Z,20.45
2019-05-16T17:35:38.993Z,20.42
2019-05-16T17:38:14.300Z,20.39
2019-05-16T17:40:49.648Z,20.32
2019-05-16T17:43:27.005Z,20.33
2019-05-16T17:46:00.958Z,20.33
2019-05-16T17:48:37.698Z,20.32
2019-05-16T17:51:11.573Z,20.27
2019-05-16T17:53:45.602Z,20.28
2019-05-16T17:56:22.701Z,20.25
2019-05-16T17:58:58.431Z,20.26
2019-05-16T18:01:32.353Z,20.24
2019-05-16T18:04:07.966Z,20.20
2019-05-16T18:06:42.908Z,20.18
2019-05-16T18:09:18.305Z,20.21
2019-05-16T18:11:53.168Z,20.10
2019-05-16T18:14:27.848Z,20.11
2019-05-16T18:17:02.233Z,20.12
2019-05-16T18:19:37.267Z,20.14
2019-05-16T18:22:10.948Z,20.23
2019-05-16T18:24:47.399Z,20.14
2019-05-16T18:27:21.079Z,20.17
2019-05-16T18:29:55.423Z,20.09
2019-05-16T18:32:30.801Z,20.06
2019-05-16T18:35:07.088Z,20.06
2019-05-16T18:37:41.240Z,20.11
2019-05-16T18:40:16.741Z,20.09
2019-05-16T18:42:50.307Z,20.08
2019-05-16T18:45:27.807Z,20.05
2019-05-16T18:48:03.643Z,20.01
2019-05-16T18:50:38.621Z,20.04
2019-05-16T18:53:12.466Z,19.98
2019-05-16T18:55:47.624Z,19.97
2019-05-16T18:58:22.455Z,20.01
2019-05-16T19:00:56.663Z,20.02
2019-05-16T19:03:30.506Z,20.01
2019-05-16T19:06:07.786Z,19.99
2019-05-16T19:08:42.484Z,19.94
2019-05-16T19:11:17.832Z,19.90
2019-05-16T19:13:52.804Z,19.98
2019-05-16T19:16:26.522Z,19.93
2019-05-16T19:19:01.864Z,19.94
2019-05-16T19:21:36.831Z,19.86
2019-05-16T19:24:12.162Z,19.86
2019-05-16T19:26:48.070Z,19.80
2019-05-16T19:29:23.352Z,19.84
2019-05-16T19:31:57.206Z,19.78
2019-05-16T19:34:33.381Z,19.78
2019-05-16T19:37:08.360Z,19.73
2019-05-16T19:39:43.718Z,19.69
2019-05-16T19:42:19.759Z,19.67
2019-05-16T19:44:53.285Z,19.64
2019-05-16T19:47:35.039Z,19.71
2019-05-16T19:50:02.367Z,19.67
2019-05-16T19:52:36.901Z,19.59
2019-05-16T19:55:12.427Z,19.60
2019-05-16T19:57:48.055Z,19.59
2019-05-16T20:00:22.553Z,19.56
2019-05-16T20:02:57.757Z,19.51
2019-05-16T20:05:32.031Z,19.54
2019-05-16T20:08:06.587Z,19.56
2019-05-16T20:10:42.544Z,19.54
2019-05-16T20:13:17.918Z,19.51
2019-05-16T20:15:51.524Z,19.52
2019-05-16T20:18:27.153Z,19.46
2019-05-16T20:21:00.609Z,19.49
2019-05-16T20:23:36.833Z,19.43
2019-05-16T20:26:09.471Z,19.44
2019-05-16T20:28:43.232Z,19.37
2019-05-16T20:31:17.229Z,19.39
2019-05-16T20:33:50.867Z,19.44
2019-05-16T20:36:26.619Z,19.44
2019-05-16T20:39:00.198Z,19.43
2019-05-16T20:41:34.077Z,19.48
2019-05-16T20:44:07.845Z,19.47
2019-05-16T20:46:42.918Z,19.40
2019-05-16T20:49:18.276Z,19.41
2019-05-16T20:51:52.065Z,19.43
2019-05-16T20:54:27.537Z,19.46
2019-05-16T20:57:02.092Z,19.42
2019-05-16T20:59:35.737Z,19.39
2019-05-16T21:02:09.450Z,19.47
2019-05-16T21:04:43.083Z,19.46
2019-05-16T21:07:17.241Z,19.49
2019-05-16T21:09:51.194Z,19.52
2019-05-16T21:12:26.573Z,19.51
2019-05-16T21:14:59.965Z,19.52
2019-05-16T21:17:35.442Z,19.47
2019-05-16T21:20:09.416Z,19.52
2019-05-16T21:22:43.846Z,19.51
2019-05-16T21:25:18.922Z,19.52
2019-05-16T21:27:53.923Z,19.59
2019-05-16T21:30:27.660Z,19.56
2019-05-16T21:33:01.472Z,19.54
2019-05-16T21:35:36.539Z,19.58
2019-05-16T21:38:11.609Z,19.69
2019-05-16T21:40:47.401Z,19.69
2019-05-16T21:43:21.681Z,19.61
2019-05-16T21:45:56.695Z,19.64
2019-05-16T21:48:32.110Z,19.53
2019-05-16T21:51:07.693Z,19.53
2019-05-16T21:53:42.050Z,19.60
2019-05-16T21:56:17.619Z,19.67
2019-05-16T21:58:52.831Z,19.72
2019-05-16T22:01:29.197Z,19.70
2019-05-16T22:04:07.189Z,19.69
2019-05-16T22:06:41.123Z,19.66
2019-05-16T22:09:16.386Z,19.75
2019-05-16T22:11:49.911Z,19.84
2019-05-16T22:14:27.745Z,19.88
2019-05-16T22:17:02.827Z,19.86
2019-05-16T22:19:36.585Z,19.76
2019-05-16T22:22:11.596Z,19.73
2019-05-16T22:24:49.215Z,19.89
2019-05-16T22:27:21.966Z,19.85
2019-05-16T22:29:56.735Z,19.95
2019-05-16T22:32:31.241Z,19.91
2019-05-16T22:35:07.896Z,19.92
2019-05-16T22:37:52.191Z,20.04
2019-05-16T22:40:20.489Z,20.14
2019-05-16T22:42:54.681Z,20.15
2019-05-16T22:45:28.941Z,20.18
2019-05-16T22:48:03.132Z,20.20
2019-05-16T22:50:38.705Z,20.24
2019-05-16T22:53:14.021Z,20.27
2019-05-16T22:55:47.825Z,20.28
2019-05-16T22:58:23.304Z,20.32
2019-05-16T23:00:57.398Z,20.41
2019-05-16T23:03:31.325Z,20.54
2019-05-16T23:06:07.646Z,20.67
2019-05-16T23:08:41.395Z,20.87
2019-05-16T23:11:16.555Z,20.96
2019-05-16T23:13:51.700Z,21.16
2019-05-16T23:16:26.666Z,21.26
2019-05-16T23:19:01.712Z,21.41
2019-05-16T23:21:37.182Z,21.29
2019-05-16T23:24:11.091Z,21.35
2019-05-16T23:26:46.837Z,21.35
2019-05-16T23:29:19.736Z,21.50
2019-05-16T23:31:56.428Z,21.89
2019-05-16T23:34:29.623Z,21.94
2019-05-16T23:37:06.473Z,21.79
2019-05-16T23:39:41.665Z,21.84
2019-05-16T23:42:15.437Z,22.12
2019-05-16T23:44:50.081Z,22.00
2019-05-16T23:47:23.674Z,22.10
2019-05-16T23:49:57.703Z,22.06
2019-05-16T23:52:33.164Z,22.12
2019-05-16T23:55:09.639Z,22.14
2019-05-16T23:57:46.614Z,22.35
